Weather observations for the past three days for
Detroit/Grosse Ile, Grosse Ile Airport
Metric (Imperial)
Date Time (edt) Wind (kph) Vis. (km) Weather Sky Cond. Temperature (ºC) Relative Humidity Wind Chill (°C) Heat Index (°C) Pressure Precipitation (cm)
Air Dwpt 6 hour altimeter (cm) sea level (mb) 1 hr 3 hr 6 hr
Max. Min.
07 15:35 NW 20 16.09 Overcast BKN075 OVC080 13 -1 38% 75.87 0.0
07 15:15 NW 26 G 37 16.09 Mostly Cloudy BKN075 BKN085 13 -2 36% 75.87 0.0
07 14:55 W 30 G 39 16.09 Mostly Cloudy BKN065 BKN075 13 -1 38% 75.87 0.0
07 14:35 W 26 G 35 16.09 Mostly Cloudy BKN070 BKN080 14 0 39% 75.87 0.0
07 14:15 W 24 G 33 16.09 Partly Cloudy SCT070 13 -1 38% 75.9 0.0
07 13:55 W 20 G 28 16.09 Mostly Cloudy BKN070 13 0 13.9 7.5 41% 75.9 0.0
07 13:15 W 17 16.09 Mostly Cloudy BKN065 14 0 39% 75.92 0.0
07 12:55 W 20 G 30 16.09 Overcast BKN065 OVC075 13 1 44% 75.92 0.0
07 12:35 W 15 16.09 Overcast OVC055 13 0 41% 75.95 0.0
07 12:15 W 15 16.09 Mostly Cloudy BKN055 12 0 44% 75.95 0.0
07 11:55 W 11 16.09 Mostly Cloudy BKN055 12 0 44% 75.95 0.0
07 11:35 W 19 16.09 Mostly Cloudy BKN055 12 0 44% 75.95 0.0
07 11:15 W 11 16.09 Mostly Cloudy BKN055 12 0 44% 75.95 0.0
07 10:55 S 11 16.09 Partly Cloudy SCT055 12 2 51% 75.95 0.0
07 10:35 S 11 16.09 Fair CLR 11 2 54% 75.95 0.0
07 10:15 S 9 16.09 Fair CLR 11 1 50% 75.97 0.0
07 09:55 Vrbl 4 16.09 Fair CLR 11 0 47% 75.97 0.0
07 09:35 Vrbl 7 16.09 Fair CLR 10 0 50% 9 75.97 0.0
07 09:15 Vrbl 4 16.09 Fair CLR 10 0 50% 76 0.0
07 08:55 NW 6 16.09 Fair CLR 10 1 54% 76 0.0
07 08:35 NW 11 16.09 Fair CLR 9 1 58% 8 75.97 0.0
07 08:15 NW 7 16.09 Fair CLR 8 1 62% 7 75.97 0.0
07 07:55 NW 7 16.09 Fair CLR 8 1 9.1 4.9 62% 7 75.97 0.0
07 07:35 NW 7 16.09 Fair CLR 7 2 71% 6 75.97 0.0
07 07:15 NW 7 16.09 Fair CLR 6 1 71% 5 75.95 0.0
07 06:55 NW 9 16.09 Fair CLR 6 1 71% 4 75.95 0.0
07 06:35 NW 7 16.09 Fair CLR 5 2 81% 4 75.92 0.0
07 06:15 NW 6 16.09 Fair CLR 6 1 71% 75.92 0.0
07 05:55 NW 6 16.09 A Few Clouds FEW085 6 1 71% 75.92 0.0
07 05:35 NW 6 16.09 Mostly Cloudy BKN085 7 1 66% 75.92 0.0
07 05:15 NW 6 16.09 Overcast OVC085 8 1 62% 75.92 0.0
07 04:55 NW 6 16.09 Overcast OVC095 8 1 62% 75.95 0.0
07 04:35 NW 7 16.09 Overcast OVC095 7 1 66% 6 75.95 0.0
07 04:15 NW 7 16.09 Overcast FEW070 OVC095 8 1 62% 7 75.92 0.0
07 03:55 NW 11 16.09 Overcast BKN070 OVC095 8 1 62% 6 75.95 0.0
07 03:35 NW 7 16.09 Overcast OVC070 8 1 62% 7 75.92 0.0
07 03:15 W 7 16.09 Overcast BKN070 OVC095 8 1 62% 7 75.92 0.0
07 02:55 W 7 16.09 Overcast OVC095 8 2 66% 7 75.95 0.0
07 02:35 W 6 16.09 Overcast OVC095 9 2 62% 75.95 0.0
07 02:15 W 6 16.09 Overcast OVC095 9 2 62% 75.95 0.0
07 01:55 W 6 16.09 Overcast OVC095 9 2 12 8.9 62% 75.95 0.0
07 01:35 W 4 16.09 Overcast OVC095 9 2 62% 75.95 0.0
07 01:15 W 4 16.09 Overcast OVC095 9 3 66% 75.97 0.0
07 00:55 W 4 16.09 Overcast OVC095 9 4 71% 75.97 0.0
07 00:35 SW 2 16.09 Overcast OVC095 10 3 62% 75.97 0.0
07 00:15 W 2 16.09 Overcast OVC095 10 2 58% 75.97 0.0
06 23:55 SW 4 16.09 Overcast OVC085 10 3 62% 75.97 0.0
06 23:35 W 4 16.09 Overcast OVC085 10 3 62% 76 0.0
06 23:15 SW 4 16.09 Overcast OVC085 10 4 67% 76 0.0
06 22:55 SW 6 16.09 Mostly Cloudy BKN085 10 4 67% 76 0.0
06 22:35 S 7 16.09 A Few Clouds FEW085 10 4 67% 9 76 0.0
06 22:15 S 9 16.09 Mostly Cloudy SCT075 BKN085 10 4 67% 9 76 0.0
06 21:55 S 7 16.09 Overcast BKN075 OVC085 10 5 71% 9 76 0.0
06 21:35 S 7 16.09 Overcast OVC075 10 4 67% 9 75.97 0.0
06 21:15 S 9 16.09 Overcast OVC075 10 4 67% 9 75.97 0.0
06 20:55 S 7 16.09 Overcast OVC075 10 4 67% 9 75.95 0.0
06 20:35 S 7 16.09 Overcast OVC075 11 0 47% 75.95 0.0
06 20:15 W 2 16.09 Overcast OVC075 12 -1 41% 75.95 0.0
06 19:55 W 4 16.09 Overcast BKN065 OVC080 12 -1 13.5 11.5 41% 75.95 0.0
06 19:35 W 4 16.09 Overcast OVC065 12 0 44% 75.95 0.0
06 19:15 Vrbl 6 16.09 Overcast OVC065 12 -1 41% 75.92 0.0
06 18:55 Vrbl 6 16.09 Mostly Cloudy BKN065 BKN080 12 -1 41% 75.92 0.0
06 18:35 W 11 16.09 Partly Cloudy SCT075 12 -1 41% 75.95 0.0
06 18:15 W 7 16.09 Mostly Cloudy BKN065 12 -1 41% 75.95 0.0
06 17:55 NW 13 16.09 Mostly Cloudy BKN065 12 -1 41% 75.95 0.0
06 17:35 W 11 16.09 Mostly Cloudy BKN070 12 0 44% 75.92 0.0
06 17:15 W 7 16.09 A Few Clouds FEW060 12 -1 41% 75.92 0.0
06 16:55 NW 17 16.09 A Few Clouds FEW060 13 1 44% 75.92 0.0
06 16:35 N 13 16.09 Partly Cloudy SCT060 12 0 44% 75.92 0.0
06 16:15 NW 11 16.09 Mostly Cloudy BKN060 12 -1 41% 75.92 0.0
06 15:55 W 13 16.09 Mostly Cloudy BKN060 13 0 41% 75.92 0.0
06 15:35 NW 19 16.09 Mostly Cloudy BKN060 12 -1 41% 75.95 0.0
06 15:15 NW 19 16.09 A Few Clouds FEW060 12 -1 41% 75.95 0.0
06 14:55 NW 20 16.09 A Few Clouds FEW060 12 0 44% 75.95 0.0
06 14:35 NW 20 G 26 16.09 Fair CLR 12 -1 41% 75.92 0.0
06 14:15 NW 26 G 33 16.09 A Few Clouds FEW120 12 0 44% 75.92 0.0
06 13:55 NW 19 G 30 16.09 Mostly Cloudy SCT055 BKN120 12 0 14.3 7.7 44% 75.92 0.0
06 13:35 NW 17 16.09 Mostly Cloudy BKN065 BKN120 12 0 44% 75.92 0.0
06 13:15 NW 19 16.09 Mostly Cloudy BKN065 12 1 47% 75.92 0.0
06 12:55 N 19 16.09 A Few Clouds FEW065 13 1 44% 75.92 0.0
06 12:35 W 19 G 28 16.09 A Few Clouds FEW065 14 0 39% 75.9 0.0
06 12:15 W 20 G 28 16.09 A Few Clouds FEW065 13 -1 38% 75.9 0.0
06 11:55 W 15 G 31 16.09 Partly Cloudy SCT065 14 1 41% 75.9 0.0
06 11:35 Vrbl 7 G 26 16.09 A Few Clouds FEW055 13 1 44% 75.87 0.0
06 11:15 NW 17 16.09 A Few Clouds FEW055 13 1 44% 75.87 0.0
06 10:55 NW 17 16.09 Fair CLR 12 1 47% 75.87 0.0
06 10:35 NW 15 16.09 Fair CLR 12 2 51% 75.87 0.0
06 10:15 NW 15 16.09 Fair CLR 11 2 54% 75.87 0.0
06 09:55 NW 13 16.09 Fair CLR 11 3 58% 75.84 0.0
06 09:35 Vrbl 7 16.09 Fair CLR 11 3 58% 75.84 0.0
06 09:15 N 11 16.09 Fair CLR 10 3 62% 9 75.82 0.0
06 08:55 N 11 16.09 Fair CLR 10 4 67% 9 75.82 0.0
06 08:35 NW 13 16.09 Fair CLR 10 3 62% 8 75.77 0.0
06 08:15 NW 9 16.09 Fair CLR 9 4 71% 8 75.77 0.0
06 07:55 NW 9 16.09 A Few Clouds FEW100 8 4 8.3 7.7 76% 7 75.77 0.0
06 07:35 NW 9 16.09 Mostly Cloudy BKN090 8 4 76% 7 75.74 0.0
06 07:15 NW 9 16.09 Overcast OVC090 8 4 76% 7 75.72 0.0
06 06:55 NW 7 16.09 Overcast OVC090 8 5 82% 7 75.69 0.0
06 06:35 NW 9 16.09 Overcast OVC080 8 5 82% 7 75.67 0.0
06 06:15 NW 7 16.09 Overcast OVC080 8 5 82% 7 75.64 0.0
06 05:55 NW 7 16.09 Overcast OVC080 8 5 82% 7 75.64 0.0
06 05:35 W 7 16.09 Overcast OVC080 8 5 82% 7 75.64 0.0
06 05:15 W 6 16.09 Overcast OVC080 8 5 82% 75.64 0.0
06 04:55 NW 7 16.09 Overcast OVC080 8 6 87% 7 75.64 0.0
06 04:35 W 7 16.09 Overcast OVC080 8 6 87% 7 75.67 0.0
06 04:15 W 7 16.09 Overcast BKN080 OVC090 8 6 87% 7 75.62 0.0
06 03:55 W 6 16.09 Overcast SCT070 OVC100 8 6 87% 75.62 0.0
06 03:35 W 7 16.09 Overcast BKN070 OVC100 8 6 87% 7 75.64 0.0
06 03:15 W 6 16.09 Overcast BKN070 OVC090 8 6 87% 75.62 0.0
06 02:55 W 7 16.09 Overcast BKN070 OVC080 8 6 87% 7 75.64 0.0
06 02:35 W 6 16.09 Overcast OVC070 8 6 87% 75.67 0.0
06 02:15 SW 7 16.09 Overcast OVC070 8 5 82% 7 75.67 0.0
06 01:55 SW 7 16.09 Overcast BKN070 OVC090 8 6 10 8.2 87% 7 75.67 0.0
06 01:35 SW 7 16.09 Overcast BKN070 OVC080 8 6 87% 7 75.67 0.0
06 01:15 SW 6 16.09 Overcast OVC060 8 6 87% 75.67 0.0
06 00:55 SW 7 16.09 Light Rain OVC060 8 6 87% 7 75.67 0.0
06 00:35 SW 7 16.09 Light Rain BKN065 OVC080 9 6 82% 8 75.69 0.0
06 00:15 SW 9 16.09 Light Rain OVC080 9 7 87% 8 75.67 0.0
05 23:55 S 7 16.09 Light Rain OVC080 8 7 93% 7 75.67 0.0
05 23:35 S 6 16.09 Light Rain SCT070 OVC090 9 8 94% 75.64 0.0
05 23:15 SW 7 16.09 Light Rain BKN060 BKN080 OVC090 9 7 87% 8 75.67 0.0
05 22:55 SW 6 16.09 Light Rain BKN060 OVC085 9 8 94% 75.69 0.0
05 22:35 SW 6 16.09 Light Rain BKN080 OVC085 9 8 94% 75.69 0.0
05 22:15 S 9 16.09 Light Rain OVC080 9 9 100% 8 75.67 0.0
05 21:55 SW 7 16.09 Light Rain OVC080 10 9 94% 9 75.67 0.0 0.03
05 21:35 W 7 16.09 Light Rain OVC090 10 9 94% 9 75.64 0.0
05 21:15 SW 7 16.09 Light Rain SCT080 OVC090 10 9 94% 9 75.62 0.0
05 20:55 W 6 16.09 Light Rain BKN080 OVC090 10 9 94% 75.62 0.0
05 20:35 W 7 16.09 Light Rain FEW065 SCT080 OVC090 10 9 94% 9 75.62 0.0
05 20:15 SW 11 16.09 Light Rain FEW065 OVC080 10 9 94% 9 75.62 0.0
05 19:55 SW 9 16.09 Light Rain OVC090 10 9 12.9 10 94% 9 75.59 0.0
05 19:35 SW 9 16.09 Light Rain SCT075 OVC090 10 9 94% 9 75.57 0.0
05 19:15 S 9 16.09 Overcast OVC060 10 9 94% 9 75.57 0.0
05 18:55 SW 9 16.09 Overcast OVC060 10 9 94% 9 75.57 0.0 0.03
05 18:35 SW 7 16.09 Light Rain OVC060 10 9 94% 9 75.54 0.0
05 18:15 SW 7 16.09 Light Rain BKN060 BKN065 OVC075 11 9 88% 75.57 0.0
05 17:55 SW 7 16.09 Light Rain BKN060 OVC085 11 9 88% 75.59 0.0 0.05
05 17:35 SW 7 16.09 Light Rain SCT060 OVC085 11 9 88% 75.57 0.0
05 17:15 SW 7 16.09 Light Rain OVC060 11 8 82% 75.57 0.0
05 16:55 W 9 16.09 Overcast OVC070 12 7 72% 75.57 0.0
05 16:35 W 11 16.09 Overcast OVC070 11 7 77% 75.59 0.0
05 16:15 W 11 16.09 Overcast OVC070 12 7 72% 75.59 0.0
05 15:55 W 15 16.09 Light Rain OVC070 11 7 77% 75.62 0.0 0.03
05 15:35 W 13 16.09 Light Rain OVC070 11 8 82% 75.62 0.0
05 15:15 W 11 16.09 Light Rain OVC080 12 8 77% 75.62 0.0
05 14:55 W 17 16.09 Light Rain OVC080 12 7 72% 75.62 0.0
05 14:35 W 13 16.09 Light Rain OVC080 12 7 72% 75.62 0.0
05 14:15 NW 19 16.09 Overcast OVC080 13 8 72% 75.59 0.0
05 13:55 NW 19 16.09 Overcast FEW034 BKN080 OVC110 13 8 18.5 12.7 72% 75.57 0.0
05 13:35 NW 20 16.09 Light Rain FEW035 SCT070 OVC080 13 7 67% 75.54 0.0
05 13:15 NW 11 16.09 Light Rain OVC085 14 6 59% 75.51 0.0
05 12:55 NW 17 16.09 Light Rain FEW047 FEW070 OVC085 14 5 55% 75.54 0.0
05 12:35 W 15 G 26 16.09 Overcast FEW050 SCT075 OVC095 15 6 55% 75.54 0.0
05 12:15 W 13 16.09 Light Rain SCT070 OVC085 15 5 51% 75.54 0.0
05 11:55 W 15 16.09 Overcast OVC085 15 4 48% 75.51 0.0
05 11:35 W 13 16.09 Overcast OVC085 15 5 51% 75.46 0.0
05 11:15 W 19 16.09 Overcast OVC085 16 6 52% 75.49 0.0
05 10:55 W 15 16.09 Mostly Cloudy BKN085 16 7 55% 75.46 0.0 0.03
05 10:35 W 20 G 33 0.00 Fair CLR 18 10 60% 75.41 0.0
05 10:15 W 20 G 26 16.09 Fair CLR 18 10 60% 75.39 0.0
05 09:55 W 19 16.09 A Few Clouds FEW080 16 11 72% 75.34 0.0
05 09:35 W 22 G 31 16.09 Mostly Cloudy SCT022 BKN080 16 11 72% 75.36 0.0
05 09:15 W 20 16.09 Partly Cloudy SCT020 16 11 72% 75.31 0.0
05 08:55 W 15 16.09 A Few Clouds FEW018 16 12 77% 75.29 0.0
05 08:35 SW 17 16.09 Fair CLR 15 12 82% 75.31 0.0
05 08:15 W 15 16.09 Fair CLR 15 12 82% 75.31 0.0
05 07:55 W 20 16.09 Fair CLR 15 12 15.9 14.1 82% 75.31 0.0
05 07:35 SW 15 16.09 Fair CLR 14 11 82% 75.26 0.0
05 07:15 SW 15 G 28 16.09 Fair CLR 14 11 82% 75.21 0.0
05 06:55 SW 15 16.09 Fair CLR 14 12 88% 75.21 0.0
05 06:35 SW 19 16.09 Fair CLR 14 12 88% 75.18 0.0
05 06:15 SW 17 16.09 Fair CLR 15 12 82% 75.16 0.0
05 05:55 W 20 G 30 16.09 Fair CLR 15 12 82% 75.16 0.0
05 05:35 W 19 G 28 16.09 Fair CLR 15 12 82% 75.13 0.0
05 05:15 W 22 G 31 16.09 A Few Clouds FEW110 15 11 77% 75.13 0.0
05 04:55 W 13 16.09 Mostly Cloudy BKN110 16 11 72% 75.13 0.0
05 04:35 W 17 G 30 16.09 Mostly Cloudy BKN120 16 11 72% 75.11 0.0
05 04:15 SW 15 G 28 16.09 Partly Cloudy SCT120 16 11 72% 75.08 0.0
05 03:55 SW 15 16.09 A Few Clouds FEW100 15 12 82% 75.08 0.0
05 03:35 SW 11 16.09 Partly Cloudy SCT100 15 12 82% 75.03 0.0
05 03:15 SW 13 16.09 Partly Cloudy SCT090 SCT110 15 12 82% 75.01 0.0
05 02:55 SW 17 16.09 Mostly Cloudy FEW075 BKN090 BKN120 15 12 82% 75.03 0.0
05 02:35 SW 17 G 28 16.09 Light Rain FEW075 BKN090 OVC110 15 12 82% 75.06 0.0
05 02:15 SW 13 16.09 Mostly Cloudy BKN090 BKN110 16 12 77% 75.08 0.0
05 01:55 SW 15 G 26 16.09 Mostly Cloudy FEW070 SCT080 BKN110 16 12 19.6 14.1 77% 75.08 0.0
05 01:35 SW 13 G 31 16.09 Overcast FEW060 SCT070 OVC080 16 12 77% 75.11 0.0
05 01:15 W 17 16.09 Light Rain SCT060 BKN070 OVC120 16 12 77% 75.13 0.0
05 00:55 W 19 G 31 16.09 Overcast BKN070 BKN090 OVC110 16 12 77% 75.16 0.0 0.03
05 00:35 W 33 G 43 16.09 Light Rain and Breezy BKN065 OVC080 17 13 77% 75.16 0.0
05 00:15 SW 22 16.09 Overcast BKN065 OVC090 18 11 64% 75.08 0.0
04 23:55 SW 22 G 31 16.09 Mostly Cloudy BKN065 18 12 68% 75.06 0.0
04 23:35 S 20 16.09 Fair CLR 15 12 82% 75.06 0.0
04 23:15 S 20 16.09 Fair CLR 19 11 60% 75.08 0.0
04 22:55 S 19 16.09 Fair CLR 19 11 60% 75.08 0.0
04 22:35 SW 20 G 31 16.09 Fair CLR 20 11 56% 75.11 0.0
04 22:15 SW 19 16.09 Fair CLR 18 11 64% 75.08 0.0
04 21:55 S 13 16.09 Fair CLR 14 13 94% 75.08 0.0
04 21:35 S 13 16.09 A Few Clouds FEW070 16 13 83% 75.08 0.0
04 21:15 S 13 16.09 Partly Cloudy FEW070 FEW090 SCT120 15 13 88% 75.06 0.0
04 20:55 S 11 16.09 Light Rain FEW060 BKN070 OVC095 16 14 88% 75.03 0.0 0.15
04 20:35 W 17 14.48 Light Rain FEW060 OVC070 16 13 83% 75.11 0.0
04 20:15 NW 11 16.09 Light Rain BKN070 OVC080 16 13 83% 75.03 0.0
04 19:55 SW 17 G 50 14.48 Light Rain SCT060 BKN080 BKN100 16 13 23.7 15.6 83% 75.06 0.0 0.23
04 19:35 W 33 G 46 16.09 Light Rain and Breezy SCT070 BKN080 BKN120 22 11 50% 75.03 0.0
04 19:15 SW 19 G 41 16.09 Partly Cloudy SCT070 SCT090 23 10 44% 74.96 0.0
04 18:55 SW 20 G 35 16.09 Overcast BKN070 OVC090 23 10 44% 74.96 0.0
04 18:35 SW 26 G 31 16.09 Mostly Cloudy BKN070 BKN080 23 11 47% 74.96 0.0
04 18:15 SW 24 16.09 Fair CLR 24 11 44% 25 74.98 0.0
04 17:55 SW 17 G 39 16.09 Partly Cloudy SCT065 SCT070 23 12 50% 75.01 0.0
04 17:35 S 20 16.09 Mostly Cloudy BKN065 BKN075 20 12 60% 75.03 0.0
04 17:15 S 20 16.09 Mostly Cloudy SCT070 BKN075 BKN090 19 12 64% 75.06 0.0
04 16:55 S 24 16.09 Mostly Cloudy BKN075 BKN090 19 12 64% 75.08 0.0
04 16:35 S 26 16.09 Partly Cloudy SCT075 19 11 60% 75.11 0.0
04 16:15 S 28 16.09 A Few Clouds FEW080 20 11 56% 75.11 0.0
Date Time (edt) Wind (kph) Vis. (km) Weather Sky Cond. Air Dwpt Max. Min. Relative Humidity Wind Chill (°C) Heat Index (°C) altimeter (cm) sea level (mb) 1 hr 3 hr 6 hr
6 hour
Temperature (ºC) Pressure Precipitation (cm)